KWJF/WJF METAR and TAF weather

Enter ICAO airport designator
Station Type Date Time Source
KWJF METAR 2020/09/24 11:56 UTC NOAA

KWJF 241156Z AUTO 27003KT 10SM CLR 16/02 A3001 RMK AO2 SLP144 T01560022 10217 20139 56007


Station Type Date Time Source
KWJF Decoded METAR 2020/09/24 11:56 UTC NOAA

LANCASTER FOX AIRFIELD, CA, United States (KWJF) 34-44N 118-13W
Sep 24, 2020 - 07:56 AM EDT / 2020.09.24 1156 UTC
Wind: from the W (270 degrees) at 3 MPH (3 KT):0
Visibility: 10 mile(s):0
Sky conditions: clear
Temperature: 60.1 F (15.6 C)
Dew Point: 36.0 F (2.2 C)
Relative Humidity: 40%
Pressure (altimeter): 30.01 in. Hg (1016 hPa)
Pressure tendency: 0.02 inches (0.7 hPa) lower than three hours ago
ob: KWJF 241156Z AUTO 27003KT 10SM CLR 16/02 A3001 RMK AO2 SLP144 T01560022 10217 20139 56007
cycle: 12

Station Type Date Time Source
KWJF TAF 2020/09/24 12:33 UTC NOAA

TAF KWJF 241131Z 2412/2512 21006KT P6SM SKC
FM241800 26015KT P6SM SKC
FM242200 27020G30KT P6SM SKC
FM250300 27015KT P6SM SKC

Example: see airport list